X  Schlie├čen METAR Luftfahrt Wetterdaten     EDDK Cologne Bonn Airport
Temperatur
22°C Temperatur
14°C Taupunkt
61% Feuchtigkeit



Wind
24 KM/S
15 MPS
7 M/S
13 KTS



290°
WNW
Aktuelle Wetterlage

Meistens vereinzelte Wolken Meistens vereinzelte Wolken
Luftdruck 1016.93 (hPa) - 30.03 (inHg)
Sichtweite 6 (Meile) - 9.7 (Km)
Flughafen
Flughafen Code EDDK

Position : Cologne Bonn Airport
Entfernung: 56 (Km)

Metar:
EDDK 231750Z AUTO 29013KT 260V320 9999 SCT040 BKN046 22/14 Q1017 NOSIG

Zeit: 2024-07-23 19:50 CEST